createdAt,value
2018-11-25T00:02:01.546Z,13.97
2018-11-25T00:04:29.994Z,12.80
2018-11-25T00:06:58.458Z,13.97
2018-11-25T00:09:26.958Z,14.43
2018-11-25T00:11:55.376Z,14.70
2018-11-25T00:14:23.825Z,14.20
2018-11-25T00:16:52.244Z,13.73
2018-11-25T00:19:20.687Z,16.50
2018-11-25T00:21:49.096Z,15.30
2018-11-25T00:24:17.540Z,15.63
2018-11-25T00:26:45.988Z,14.27
2018-11-25T00:29:14.423Z,15.30
2018-11-25T00:31:42.859Z,14.10
2018-11-25T00:34:11.328Z,14.43
2018-11-25T00:36:39.774Z,15.10
2018-11-25T00:39:09.023Z,14.00
2018-11-25T00:41:37.436Z,15.67
2018-11-25T00:44:05.984Z,15.80
2018-11-25T00:46:34.403Z,16.27
2018-11-25T00:49:02.883Z,16.47
2018-11-25T00:51:31.350Z,13.87
2018-11-25T00:53:59.787Z,16.20
2018-11-25T00:56:28.250Z,18.13
2018-11-25T00:58:56.891Z,16.00
2018-11-25T01:01:25.310Z,17.10
2018-11-25T01:03:53.776Z,17.40
2018-11-25T01:06:22.326Z,16.80
2018-11-25T01:08:50.826Z,16.57
2018-11-25T01:11:19.263Z,16.07
2018-11-25T01:13:47.729Z,16.30
2018-11-25T01:16:16.263Z,18.40
2018-11-25T01:18:44.732Z,16.43
2018-11-25T01:21:13.159Z,16.10
2018-11-25T01:23:41.691Z,17.90
2018-11-25T01:26:10.208Z,16.70
2018-11-25T01:28:38.663Z,17.20
2018-11-25T01:31:07.125Z,16.63
2018-11-25T01:33:35.694Z,16.50
2018-11-25T01:36:04.285Z,16.37
2018-11-25T01:38:32.750Z,20.33
2018-11-25T01:41:01.200Z,18.80
2018-11-25T01:43:29.657Z,19.30
2018-11-25T01:45:58.707Z,18.70
2018-11-25T01:48:27.234Z,19.83
2018-11-25T01:50:55.726Z,19.43
2018-11-25T01:53:24.167Z,19.80
2018-11-25T01:55:52.737Z,18.53
2018-11-25T01:58:21.211Z,19.60
2018-11-25T02:00:49.678Z,20.90
2018-11-25T02:03:18.085Z,23.77
2018-11-25T02:05:46.734Z,23.13
2018-11-25T02:08:15.287Z,22.23
2018-11-25T02:10:43.721Z,21.90
2018-11-25T02:13:12.154Z,23.10
2018-11-25T02:15:40.746Z,21.67
2018-11-25T02:18:09.324Z,22.50
2018-11-25T02:20:37.745Z,20.20
2018-11-25T02:23:06.214Z,18.03
2018-11-25T02:25:34.776Z,20.10
2018-11-25T02:28:03.274Z,20.23
2018-11-25T02:30:31.706Z,17.40
2018-11-25T02:33:00.185Z,18.97
2018-11-25T02:35:28.730Z,18.50
2018-11-25T02:37:57.219Z,19.00
2018-11-25T02:40:25.669Z,18.67
2018-11-25T02:42:54.094Z,20.83
2018-11-25T02:45:22.527Z,17.20
2018-11-25T02:47:50.937Z,21.93
2018-11-25T02:50:23.772Z,21.17
2018-11-25T02:52:52.302Z,23.50
2018-11-25T02:55:22.730Z,20.03
2018-11-25T02:57:51.589Z,22.50
2018-11-25T03:00:20.070Z,20.70
2018-11-25T03:02:48.594Z,20.30
2018-11-25T03:05:17.015Z,20.47
2018-11-25T03:07:45.453Z,20.87
2018-11-25T03:10:13.901Z,23.63
2018-11-25T03:12:42.350Z,20.87
2018-11-25T03:15:12.201Z,21.30
2018-11-25T03:17:40.671Z,20.93
2018-11-25T03:20:12.432Z,21.90
2018-11-25T03:22:40.895Z,19.80
2018-11-25T03:25:14.628Z,19.27
2018-11-25T03:27:43.079Z,22.67
2018-11-25T03:30:13.818Z,21.03
2018-11-25T03:32:42.373Z,21.53
2018-11-25T03:35:11.830Z,20.27
2018-11-25T03:37:40.343Z,18.93
2018-11-25T03:40:10.942Z,21.53
2018-11-25T03:42:39.448Z,20.43
2018-11-25T03:45:09.813Z,20.77
2018-11-25T03:47:38.251Z,20.33
2018-11-25T03:50:07.559Z,19.97
2018-11-25T03:52:35.982Z,19.00
2018-11-25T03:55:05.609Z,21.03
2018-11-25T03:57:34.052Z,19.87
2018-11-25T04:00:02.490Z,18.00
2018-11-25T04:02:30.930Z,19.30
2018-11-25T04:04:59.355Z,19.53
2018-11-25T04:07:27.793Z,19.17
2018-11-25T04:09:56.197Z,18.70
2018-11-25T04:12:24.625Z,18.30
2018-11-25T04:14:53.115Z,20.77
2018-11-25T04:17:21.551Z,20.33
2018-11-25T04:19:49.978Z,20.40
2018-11-25T04:22:18.398Z,18.70
2018-11-25T04:24:46.786Z,16.43
2018-11-25T04:27:15.206Z,17.07
2018-11-25T04:29:43.612Z,17.73
2018-11-25T04:32:12.026Z,15.97
2018-11-25T04:34:40.502Z,18.80
2018-11-25T04:37:08.887Z,16.77
2018-11-25T04:39:37.698Z,16.03
2018-11-25T04:42:06.358Z,19.33
2018-11-25T04:44:34.947Z,17.37
2018-11-25T04:47:03.381Z,16.43
2018-11-25T04:49:31.805Z,17.60
2018-11-25T04:52:00.278Z,18.53
2018-11-25T04:54:28.715Z,15.47
2018-11-25T04:56:57.145Z,17.30
2018-11-25T04:59:25.572Z,18.27
2018-11-25T05:01:54.014Z,17.67
2018-11-25T05:04:22.405Z,19.43
2018-11-25T05:06:50.814Z,19.60
2018-11-25T05:09:19.243Z,21.57
2018-11-25T05:11:47.642Z,21.03
2018-11-25T05:14:16.054Z,23.03
2018-11-25T05:16:44.451Z,23.30
2018-11-25T05:19:12.859Z,22.43
2018-11-25T05:21:41.266Z,20.70
2018-11-25T05:24:09.689Z,20.60
2018-11-25T05:26:38.122Z,22.90
2018-11-25T05:29:06.666Z,23.00
2018-11-25T05:31:35.091Z,26.10
2018-11-25T05:34:03.543Z,23.37
2018-11-25T05:36:31.953Z,24.60
2018-11-25T05:39:00.374Z,25.53
2018-11-25T05:41:28.791Z,24.80
2018-11-25T05:43:57.241Z,23.83
2018-11-25T05:46:25.675Z,24.30
2018-11-25T05:48:54.062Z,24.07
2018-11-25T05:51:22.468Z,26.03
2018-11-25T05:53:50.857Z,24.93
2018-11-25T05:56:19.281Z,24.73
2018-11-25T05:58:47.671Z,26.10
2018-11-25T06:01:16.139Z,23.00
2018-11-25T06:03:44.566Z,25.63
2018-11-25T06:06:13.001Z,23.80
2018-11-25T06:08:41.430Z,24.40
2018-11-25T06:11:09.844Z,25.40
2018-11-25T06:13:38.262Z,25.20
2018-11-25T06:16:06.677Z,23.73
2018-11-25T06:18:35.074Z,26.17
2018-11-25T06:21:03.490Z,28.07
2018-11-25T06:23:31.925Z,26.87
2018-11-25T06:26:00.374Z,31.03
2018-11-25T06:28:28.763Z,28.70
2018-11-25T06:30:57.187Z,29.00
2018-11-25T06:33:25.631Z,27.67
2018-11-25T06:35:54.060Z,28.97
2018-11-25T06:38:22.490Z,29.50
2018-11-25T06:40:50.899Z,27.07
2018-11-25T06:43:19.334Z,29.87
2018-11-25T06:45:47.741Z,33.00
2018-11-25T06:48:16.177Z,32.30
2018-11-25T06:50:44.595Z,30.83
2018-11-25T06:53:13.043Z,34.40
2018-11-25T06:55:41.463Z,34.43
2018-11-25T06:58:09.913Z,35.40
2018-11-25T07:00:38.337Z,32.90
2018-11-25T07:03:06.989Z,34.00
2018-11-25T07:05:35.395Z,29.93
2018-11-25T07:08:03.868Z,31.77
2018-11-25T07:10:32.294Z,31.50
2018-11-25T07:13:00.740Z,29.83
2018-11-25T07:15:29.254Z,30.20
2018-11-25T07:17:57.792Z,28.77
2018-11-25T07:20:26.225Z,30.17
2018-11-25T07:22:54.665Z,30.83
2018-11-25T07:25:23.765Z,31.93
2018-11-25T07:27:52.229Z,31.63
2018-11-25T07:30:21.845Z,28.80
2018-11-25T07:32:50.300Z,33.07
2018-11-25T07:35:18.703Z,28.00
2018-11-25T07:37:47.140Z,28.20
2018-11-25T07:40:18.638Z,27.87
2018-11-25T07:42:47.123Z,31.47
2018-11-25T07:45:17.509Z,29.70
2018-11-25T07:47:45.944Z,28.47
2018-11-25T07:50:14.608Z,28.70
2018-11-25T07:52:45.490Z,29.50
2018-11-25T07:55:16.905Z,30.37
2018-11-25T07:57:45.731Z,29.00
2018-11-25T08:00:16.194Z,31.17
2018-11-25T08:02:44.677Z,32.60
2018-11-25T08:05:14.383Z,31.77
2018-11-25T08:07:42.822Z,34.87
2018-11-25T08:10:13.185Z,31.37
2018-11-25T08:12:41.593Z,33.20
2018-11-25T08:15:11.885Z,33.70
2018-11-25T08:17:40.410Z,33.93
2018-11-25T08:20:11.141Z,32.90
2018-11-25T08:22:39.595Z,33.57
2018-11-25T08:25:13.175Z,30.87
2018-11-25T08:27:41.669Z,32.23
2018-11-25T08:30:17.327Z,33.83
2018-11-25T08:32:45.772Z,31.50
2018-11-25T08:35:15.019Z,31.90
2018-11-25T08:37:43.468Z,32.17
2018-11-25T08:40:13.070Z,32.37
2018-11-25T08:42:41.522Z,37.07
2018-11-25T08:45:11.066Z,32.90
2018-11-25T08:47:39.524Z,34.90
2018-11-25T08:50:12.864Z,34.33
2018-11-25T08:52:41.711Z,34.23
2018-11-25T08:55:12.478Z,31.30
2018-11-25T08:57:40.917Z,31.37
2018-11-25T09:00:11.879Z,33.30
2018-11-25T09:02:40.313Z,36.70
2018-11-25T09:05:10.149Z,36.57
2018-11-25T09:07:38.610Z,35.50
2018-11-25T09:10:10.067Z,36.43
2018-11-25T09:12:38.496Z,33.10
2018-11-25T09:15:14.621Z,31.57
2018-11-25T09:17:43.119Z,29.03
2018-11-25T09:20:15.135Z,30.73
2018-11-25T09:22:43.606Z,32.37
2018-11-25T09:25:16.469Z,27.70
2018-11-25T09:27:44.883Z,29.90
2018-11-25T09:30:14.736Z,28.17
2018-11-25T09:32:43.172Z,29.53
2018-11-25T09:35:11.609Z,30.30
2018-11-25T09:37:40.116Z,26.80
2018-11-25T09:40:10.450Z,28.43
2018-11-25T09:42:38.900Z,24.40
2018-11-25T09:45:11.026Z,27.23
2018-11-25T09:47:39.492Z,28.90
2018-11-25T09:50:11.119Z,27.73
2018-11-25T09:52:39.529Z,29.20
2018-11-25T09:55:11.618Z,26.47
2018-11-25T09:57:40.453Z,29.97
2018-11-25T10:00:19.706Z,30.83
2018-11-25T10:02:48.146Z,28.90
2018-11-25T10:05:16.572Z,28.93
2018-11-25T10:07:45.068Z,30.13
2018-11-25T10:10:15.573Z,30.73
2018-11-25T10:12:44.072Z,27.90
2018-11-25T10:15:13.634Z,29.43
2018-11-25T10:17:42.097Z,30.70
2018-11-25T10:20:12.690Z,26.87
2018-11-25T10:22:41.154Z,28.40
2018-11-25T10:25:10.846Z,29.33
2018-11-25T10:27:39.298Z,30.33
2018-11-25T10:30:15.782Z,30.60
2018-11-25T10:32:44.690Z,32.67
2018-11-25T10:35:13.130Z,33.20
2018-11-25T10:37:41.547Z,33.57
2018-11-25T10:40:12.182Z,33.97
2018-11-25T10:42:40.655Z,34.70
2018-11-25T10:45:13.424Z,32.70
2018-11-25T10:47:41.868Z,35.23
2018-11-25T10:50:13.580Z,37.87
2018-11-25T10:52:42.035Z,35.67
2018-11-25T10:55:11.603Z,35.47
2018-11-25T10:57:40.516Z,36.33
2018-11-25T11:00:25.638Z,38.00
2018-11-25T11:02:59.533Z,38.30
2018-11-25T11:05:33.321Z,36.43
2018-11-25T11:08:01.787Z,39.30
2018-11-25T11:10:30.235Z,37.30
2018-11-25T11:12:58.908Z,40.23
2018-11-25T11:15:27.238Z,43.10
2018-11-25T11:17:55.737Z,42.37
2018-11-25T11:20:24.146Z,40.03
2018-11-25T11:22:52.591Z,39.73
2018-11-25T11:25:21.117Z,38.03
2018-11-25T11:27:49.567Z,40.03
2018-11-25T11:30:18.076Z,38.27
2018-11-25T11:32:47.874Z,36.17
2018-11-25T11:35:16.363Z,38.10
2018-11-25T11:37:44.807Z,38.27
2018-11-25T11:40:14.355Z,35.37
2018-11-25T11:42:42.803Z,36.37
2018-11-25T11:45:13.056Z,39.53
2018-11-25T11:47:42.252Z,40.60
2018-11-25T11:50:13.952Z,38.90
2018-11-25T11:52:42.382Z,41.33
2018-11-25T11:55:13.625Z,39.90
2018-11-25T11:57:42.600Z,38.57
2018-11-25T12:00:28.510Z,41.97
2018-11-25T12:02:56.954Z,38.97
2018-11-25T12:05:25.817Z,41.37
2018-11-25T12:07:54.274Z,37.17
2018-11-25T12:10:29.196Z,36.90
2018-11-25T12:12:57.636Z,38.80
2018-11-25T12:15:30.697Z,38.03
2018-11-25T12:17:56.137Z,38.70
2018-11-25T12:20:25.364Z,37.93
2018-11-25T12:22:54.537Z,38.40
2018-11-25T12:25:23.081Z,38.27
2018-11-25T12:27:51.537Z,39.50
2018-11-25T12:30:19.979Z,37.13
2018-11-25T12:32:49.584Z,41.77
2018-11-25T12:35:18.416Z,39.20
2018-11-25T12:37:46.835Z,38.30
2018-11-25T12:40:18.219Z,38.17
2018-11-25T12:42:48.010Z,36.27
2018-11-25T12:45:17.253Z,36.33
2018-11-25T12:47:45.697Z,40.07
2018-11-25T12:50:15.292Z,36.20
2018-11-25T12:52:43.745Z,40.73
2018-11-25T12:55:15.581Z,38.83
2018-11-25T12:57:44.061Z,38.13
2018-11-25T13:00:25.153Z,38.00
2018-11-25T13:02:53.603Z,35.80
2018-11-25T13:05:22.065Z,37.17
2018-11-25T13:07:50.494Z,34.57
2018-11-25T13:10:19.113Z,38.93
2018-11-25T13:12:47.543Z,37.30
2018-11-25T13:15:15.999Z,37.43
2018-11-25T13:17:44.479Z,37.20
2018-11-25T13:20:13.991Z,39.87
2018-11-25T13:22:42.501Z,39.13
2018-11-25T13:25:13.419Z,38.53
2018-11-25T13:27:41.852Z,36.93
2018-11-25T13:30:21.048Z,37.60
2018-11-25T13:32:50.599Z,39.17
2018-11-25T13:35:19.056Z,37.13
2018-11-25T13:37:47.527Z,38.27
2018-11-25T13:40:16.770Z,41.07
2018-11-25T13:42:45.276Z,36.60
2018-11-25T13:45:13.716Z,38.67
2018-11-25T13:47:42.249Z,39.40
2018-11-25T13:50:11.599Z,38.93
2018-11-25T13:52:40.143Z,40.73
2018-11-25T13:55:11.115Z,40.40
2018-11-25T13:57:39.582Z,35.97
2018-11-25T14:01:15.955Z,38.53
2018-11-25T14:03:44.414Z,35.90
2018-11-25T14:06:14.325Z,37.40
2018-11-25T14:08:43.951Z,37.13
2018-11-25T14:11:13.816Z,35.70
2018-11-25T14:13:42.280Z,37.37
2018-11-25T14:16:13.598Z,38.03
2018-11-25T14:18:42.029Z,36.93
2018-11-25T14:21:10.459Z,37.30
2018-11-25T14:23:38.920Z,39.87
2018-11-25T14:26:24.403Z,36.20
2018-11-25T14:28:53.282Z,34.33
2018-11-25T14:31:21.786Z,36.40
2018-11-25T14:33:50.211Z,37.77
2018-11-25T14:36:18.699Z,35.80
2018-11-25T14:38:47.120Z,35.73
2018-11-25T14:41:15.571Z,36.33
2018-11-25T14:43:44.151Z,37.00
2018-11-25T14:46:12.631Z,35.17
2018-11-25T14:48:41.088Z,35.67
2018-11-25T14:51:09.538Z,35.40
2018-11-25T14:53:37.991Z,33.43
2018-11-25T14:56:06.463Z,33.73
2018-11-25T14:58:34.924Z,34.77
2018-11-25T15:01:03.372Z,35.20
2018-11-25T15:03:31.827Z,32.20
2018-11-25T15:06:00.262Z,34.33
2018-11-25T15:08:28.750Z,33.17
2018-11-25T15:10:57.206Z,35.57
2018-11-25T15:13:25.669Z,34.40
2018-11-25T15:15:54.777Z,29.80
2018-11-25T15:18:23.363Z,32.70
2018-11-25T15:20:51.794Z,32.70
2018-11-25T15:23:21.504Z,32.53
2018-11-25T15:25:51.821Z,35.53
2018-11-25T15:28:20.288Z,31.97
2018-11-25T15:30:48.733Z,30.60
2018-11-25T15:33:17.143Z,28.90
2018-11-25T15:35:45.630Z,31.13
2018-11-25T15:38:14.115Z,28.87
2018-11-25T15:40:42.679Z,29.40
2018-11-25T15:43:11.850Z,27.30
2018-11-25T15:45:40.311Z,30.20
2018-11-25T15:48:12.503Z,30.53
2018-11-25T15:50:41.026Z,28.63
2018-11-25T15:53:10.409Z,27.20
2018-11-25T15:55:38.876Z,29.10
2018-11-25T15:58:07.863Z,28.40
2018-11-25T16:00:36.364Z,28.10
2018-11-25T16:03:07.074Z,29.40
2018-11-25T16:05:35.632Z,25.40
2018-11-25T16:08:04.509Z,26.80
2018-11-25T16:10:32.543Z,29.27
2018-11-25T16:13:00.976Z,27.07
2018-11-25T16:15:29.521Z,27.27
2018-11-25T16:17:57.990Z,27.30
2018-11-25T16:20:27.544Z,26.97
2018-11-25T16:22:58.691Z,28.60
2018-11-25T16:25:34.944Z,25.83
2018-11-25T16:28:11.459Z,28.20
2018-11-25T16:30:39.904Z,25.70
2018-11-25T16:33:08.367Z,30.77
2018-11-25T16:35:36.810Z,25.60
2018-11-25T16:38:06.014Z,27.97
2018-11-25T16:40:34.435Z,25.83
2018-11-25T16:43:03.359Z,26.37
2018-11-25T16:45:31.794Z,25.07
2018-11-25T16:48:00.519Z,25.90
2018-11-25T16:50:28.980Z,24.27
2018-11-25T16:52:57.421Z,25.70
2018-11-25T16:55:25.867Z,24.33
2018-11-25T16:57:54.318Z,24.70
2018-11-25T17:00:22.769Z,24.60
2018-11-25T17:02:51.224Z,25.33
2018-11-25T17:05:24.348Z,24.40
2018-11-25T17:07:54.830Z,24.17
2018-11-25T17:10:23.683Z,25.17
2018-11-25T17:12:52.168Z,23.60
2018-11-25T17:15:21.943Z,25.80
2018-11-25T17:17:50.477Z,23.90
2018-11-25T17:20:18.932Z,23.30
2018-11-25T17:22:47.423Z,22.23
2018-11-25T17:25:15.877Z,21.50
2018-11-25T17:27:44.383Z,22.30
2018-11-25T17:30:14.859Z,23.00
2018-11-25T17:32:43.867Z,20.97
2018-11-25T17:35:16.653Z,20.20
2018-11-25T17:37:45.110Z,22.23
2018-11-25T17:40:13.949Z,21.47
2018-11-25T17:42:42.478Z,20.60
2018-11-25T17:45:12.023Z,21.57
2018-11-25T17:47:40.551Z,21.80
2018-11-25T17:50:15.110Z,23.17
2018-11-25T17:52:43.628Z,21.00
2018-11-25T17:55:13.007Z,21.07
2018-11-25T17:57:41.558Z,21.40
2018-11-25T18:00:18.632Z,19.33
2018-11-25T18:02:47.071Z,20.17
2018-11-25T18:05:15.527Z,20.93
2018-11-25T18:07:43.993Z,17.43
2018-11-25T18:10:13.498Z,18.80
2018-11-25T18:12:48.724Z,21.83
2018-11-25T18:15:18.604Z,21.03
2018-11-25T18:17:58.956Z,20.33
2018-11-25T18:20:30.107Z,20.70
2018-11-25T18:22:58.548Z,20.83
2018-11-25T18:25:27.032Z,19.40
2018-11-25T18:28:00.489Z,19.30
2018-11-25T18:30:24.135Z,21.50
2018-11-25T18:32:52.596Z,18.97
2018-11-25T18:35:21.055Z,18.67
2018-11-25T18:37:49.507Z,19.97
2018-11-25T18:40:18.060Z,20.70
2018-11-25T18:42:46.914Z,19.77
2018-11-25T18:45:16.858Z,20.37
2018-11-25T18:47:46.863Z,20.17
2018-11-25T18:50:16.280Z,19.60
2018-11-25T18:52:46.798Z,19.23
2018-11-25T18:55:14.118Z,19.20
2018-11-25T18:57:42.546Z,19.37
2018-11-25T19:00:12.856Z,16.93
2018-11-25T19:02:40.666Z,19.50
2018-11-25T19:05:09.219Z,18.97
2018-11-25T19:07:37.667Z,18.30
2018-11-25T19:10:17.090Z,19.67
2018-11-25T19:12:45.658Z,20.00
2018-11-25T19:15:16.465Z,19.93
2018-11-25T19:17:44.930Z,19.93
2018-11-25T19:20:15.566Z,19.60
2018-11-25T19:22:44.051Z,19.93
2018-11-25T19:25:13.987Z,22.63
2018-11-25T19:27:42.580Z,20.30
2018-11-25T19:30:12.572Z,18.50
2018-11-25T19:32:41.094Z,19.97
2018-11-25T19:35:11.745Z,20.67
2018-11-25T19:37:40.977Z,20.83
2018-11-25T19:40:11.985Z,19.47
2018-11-25T19:42:40.525Z,19.20
2018-11-25T19:45:14.658Z,18.20
2018-11-25T19:47:43.116Z,20.80
2018-11-25T19:50:17.907Z,18.70
2018-11-25T19:52:46.351Z,18.77
2018-11-25T19:55:14.813Z,17.93
2018-11-25T19:57:43.323Z,20.00
2018-11-25T20:00:14.407Z,19.83
2018-11-25T20:02:42.886Z,18.80
2018-11-25T20:05:12.465Z,18.30
2018-11-25T20:07:41.232Z,18.73
2018-11-25T20:10:12.652Z,17.87
2018-11-25T20:12:42.951Z,18.40
2018-11-25T20:15:12.734Z,17.10
2018-11-25T20:17:41.212Z,18.27
2018-11-25T20:20:14.732Z,19.80
2018-11-25T20:22:43.213Z,20.90
2018-11-25T20:25:12.617Z,17.97
2018-11-25T20:27:45.091Z,19.13
2018-11-25T20:30:15.608Z,19.63
2018-11-25T20:32:49.322Z,20.53
2018-11-25T20:35:17.911Z,20.60
2018-11-25T20:37:51.794Z,17.70
2018-11-25T20:40:20.662Z,17.20
2018-11-25T20:42:49.153Z,17.60
2018-11-25T20:45:24.201Z,17.83
2018-11-25T20:47:52.798Z,18.67
2018-11-25T20:50:21.247Z,17.93
2018-11-25T20:52:55.196Z,16.43
2018-11-25T20:55:23.644Z,17.13
2018-11-25T20:57:52.144Z,16.63
2018-11-25T21:00:21.960Z,15.10
2018-11-25T21:02:50.407Z,17.17
2018-11-25T21:05:18.871Z,16.23
2018-11-25T21:07:47.331Z,17.10
2018-11-25T21:10:17.837Z,16.67
2018-11-25T21:12:47.663Z,14.70
2018-11-25T21:15:16.111Z,17.20
2018-11-25T21:17:44.615Z,17.87
2018-11-25T21:20:15.114Z,16.90
2018-11-25T21:22:43.916Z,19.10
2018-11-25T21:25:28.265Z,16.40
2018-11-25T21:27:56.723Z,16.43
2018-11-25T21:30:26.095Z,18.07
2018-11-25T21:32:55.868Z,16.57
2018-11-25T21:35:24.298Z,19.50
2018-11-25T21:37:52.786Z,17.60
2018-11-25T21:40:22.462Z,17.47
2018-11-25T21:42:51.298Z,15.70
2018-11-25T21:45:20.505Z,15.90
2018-11-25T21:47:49.363Z,15.70
2018-11-25T21:50:20.336Z,16.43
2018-11-25T21:52:48.932Z,14.10
2018-11-25T21:55:18.074Z,16.57
2018-11-25T21:57:46.516Z,14.33
2018-11-25T22:00:16.964Z,14.60
2018-11-25T22:02:45.400Z,15.20
2018-11-25T22:05:14.345Z,15.97
2018-11-25T22:07:42.893Z,17.77
2018-11-25T22:10:12.412Z,16.23
2018-11-25T22:12:41.807Z,15.33
2018-11-25T22:15:13.220Z,16.13
2018-11-25T22:17:41.824Z,16.07
2018-11-25T22:20:11.449Z,16.10
2018-11-25T22:22:39.929Z,18.43
2018-11-25T22:25:12.479Z,18.77
2018-11-25T22:27:40.945Z,15.90
2018-11-25T22:30:10.879Z,17.43
2018-11-25T22:32:39.328Z,18.77
2018-11-25T22:35:10.744Z,16.93
2018-11-25T22:37:39.219Z,17.60
2018-11-25T22:40:10.068Z,17.67
2018-11-25T22:42:39.128Z,17.50
2018-11-25T22:45:12.848Z,15.77
2018-11-25T22:47:41.401Z,15.90
2018-11-25T22:50:12.072Z,16.77
2018-11-25T22:52:40.766Z,16.53
2018-11-25T22:55:14.737Z,15.90
2018-11-25T22:57:43.379Z,17.83
2018-11-25T23:00:18.872Z,16.00
2018-11-25T23:02:47.328Z,16.70
2018-11-25T23:05:26.950Z,18.00
2018-11-25T23:07:55.396Z,16.10
2018-11-25T23:10:23.952Z,16.30
2018-11-25T23:12:52.804Z,16.57
2018-11-25T23:15:21.671Z,17.60
2018-11-25T23:17:50.221Z,16.23
2018-11-25T23:20:18.728Z,17.37
2018-11-25T23:22:47.158Z,17.00
2018-11-25T23:25:15.591Z,16.90
2018-11-25T23:27:44.218Z,17.27
2018-11-25T23:30:13.066Z,19.30
2018-11-25T23:32:41.920Z,18.17
2018-11-25T23:35:13.223Z,16.63
2018-11-25T23:37:41.741Z,16.77
2018-11-25T23:40:10.785Z,17.93
2018-11-25T23:42:39.269Z,18.50
2018-11-25T23:45:09.541Z,17.57
2018-11-25T23:47:37.991Z,18.00
2018-11-25T23:50:08.234Z,18.73
2018-11-25T23:52:36.958Z,16.57
2018-11-25T23:55:07.318Z,17.97
2018-11-25T23:57:36.091Z,18.30
